sensor_id;sensor_type;location;lat;lon;timestamp;temperature;humidity
421;DHT22;63667;49.046;8.468;2022-10-31T00:00:22;11.90;99.60
421;DHT22;63667;49.046;8.468;2022-10-31T00:02:48;11.80;99.60
421;DHT22;63667;49.046;8.468;2022-10-31T00:05:14;11.80;99.60
421;DHT22;63667;49.046;8.468;2022-10-31T00:07:40;11.80;99.60
421;DHT22;63667;49.046;8.468;2022-10-31T00:10:13;11.70;99.60
421;DHT22;63667;49.046;8.468;2022-10-31T00:12:39;11.70;99.60
421;DHT22;63667;49.046;8.468;2022-10-31T00:15:06;11.70;99.60
421;DHT22;63667;49.046;8.468;2022-10-31T00:17:35;11.80;99.60
421;DHT22;63667;49.046;8.468;2022-10-31T00:20:03;11.70;99.60
421;DHT22;63667;49.046;8.468;2022-10-31T00:22:30;11.60;99.60
421;DHT22;63667;49.046;8.468;2022-10-31T00:25:02;11.60;99.60
421;DHT22;63667;49.046;8.468;2022-10-31T00:27:28;11.60;99.60
421;DHT22;63667;49.046;8.468;2022-10-31T00:29:54;11.90;99.60
421;DHT22;63667;49.046;8.468;2022-10-31T00:32:20;12.00;99.60
421;DHT22;63667;49.046;8.468;2022-10-31T00:34:47;11.80;99.60
421;DHT22;63667;49.046;8.468;2022-10-31T00:37:13;11.80;99.60
421;DHT22;63667;49.046;8.468;2022-10-31T00:39:39;11.70;99.60
421;DHT22;63667;49.046;8.468;2022-10-31T00:42:05;11.60;99.60
421;DHT22;63667;49.046;8.468;2022-10-31T00:44:31;11.60;99.60
421;DHT22;63667;49.046;8.468;2022-10-31T00:46:58;11.50;99.60
421;DHT22;63667;49.046;8.468;2022-10-31T00:49:24;11.50;99.60
421;DHT22;63667;49.046;8.468;2022-10-31T00:51:50;11.50;99.60
421;DHT22;63667;49.046;8.468;2022-10-31T00:54:16;11.50;99.60
421;DHT22;63667;49.046;8.468;2022-10-31T00:56:43;11.40;99.60
421;DHT22;63667;49.046;8.468;2022-10-31T00:59:11;11.30;99.60
421;DHT22;63667;49.046;8.468;2022-10-31T01:01:38;11.30;99.60
421;DHT22;63667;49.046;8.468;2022-10-31T01:04:04;11.20;99.60
421;DHT22;63667;49.046;8.468;2022-10-31T01:06:31;11.20;99.60
421;DHT22;63667;49.046;8.468;2022-10-31T01:08:59;11.20;99.60
421;DHT22;63667;49.046;8.468;2022-10-31T01:11:25;11.20;99.60
421;DHT22;63667;49.046;8.468;2022-10-31T01:13:53;11.20;99.60
421;DHT22;63667;49.046;8.468;2022-10-31T01:16:22;11.20;99.60
421;DHT22;63667;49.046;8.468;2022-10-31T01:18:49;11.20;99.60
421;DHT22;63667;49.046;8.468;2022-10-31T01:21:26;11.20;99.60
421;DHT22;63667;49.046;8.468;2022-10-31T01:23:56;11.10;99.60
421;DHT22;63667;49.046;8.468;2022-10-31T01:26:25;11.10;99.60
421;DHT22;63667;49.046;8.468;2022-10-31T01:28:53;11.10;99.60
421;DHT22;63667;49.046;8.468;2022-10-31T01:31:22;11.10;99.60
421;DHT22;63667;49.046;8.468;2022-10-31T01:33:48;11.00;99.60
421;DHT22;63667;49.046;8.468;2022-10-31T01:36:18;10.90;99.60
421;DHT22;63667;49.046;8.468;2022-10-31T01:38:46;10.90;99.60
421;DHT22;63667;49.046;8.468;2022-10-31T01:41:14;10.90;99.60
421;DHT22;63667;49.046;8.468;2022-10-31T01:43:59;10.90;99.60
421;DHT22;63667;49.046;8.468;2022-10-31T01:46:39;10.90;99.60
421;DHT22;63667;49.046;8.468;2022-10-31T01:49:13;10.80;99.60
421;DHT22;63667;49.046;8.468;2022-10-31T01:51:46;11.00;99.60
421;DHT22;63667;49.046;8.468;2022-10-31T01:54:16;11.10;99.60
421;DHT22;63667;49.046;8.468;2022-10-31T01:56:47;11.00;99.60
421;DHT22;63667;49.046;8.468;2022-10-31T01:59:20;10.90;99.60
421;DHT22;63667;49.046;8.468;2022-10-31T02:01:50;10.90;99.60
421;DHT22;63667;49.046;8.468;2022-10-31T02:04:18;10.80;99.60
421;DHT22;63667;49.046;8.468;2022-10-31T02:06:53;10.80;99.60
421;DHT22;63667;49.046;8.468;2022-10-31T02:09:27;10.80;99.60
421;DHT22;63667;49.046;8.468;2022-10-31T02:11:57;10.70;99.60
421;DHT22;63667;49.046;8.468;2022-10-31T02:14:29;10.70;99.60
421;DHT22;63667;49.046;8.468;2022-10-31T02:16:56;10.80;99.60
421;DHT22;63667;49.046;8.468;2022-10-31T02:22:54;10.70;99.60
421;DHT22;63667;49.046;8.468;2022-10-31T02:26:28;10.70;99.60
421;DHT22;63667;49.046;8.468;2022-10-31T02:29:05;10.60;99.60
421;DHT22;63667;49.046;8.468;2022-10-31T02:31:50;10.60;99.60
421;DHT22;63667;49.046;8.468;2022-10-31T02:34:22;10.50;99.60
421;DHT22;63667;49.046;8.468;2022-10-31T02:36:59;10.70;99.60
421;DHT22;63667;49.046;8.468;2022-10-31T02:42:29;10.60;99.60
421;DHT22;63667;49.046;8.468;2022-10-31T02:47:58;10.50;99.60
421;DHT22;63667;49.046;8.468;2022-10-31T02:50:29;10.50;99.60
421;DHT22;63667;49.046;8.468;2022-10-31T02:52:56;10.60;99.60
421;DHT22;63667;49.046;8.468;2022-10-31T02:58:11;10.50;99.60
421;DHT22;63667;49.046;8.468;2022-10-31T03:03:35;10.50;99.60
421;DHT22;63667;49.046;8.468;2022-10-31T03:06:17;10.40;99.60
421;DHT22;63667;49.046;8.468;2022-10-31T03:12:14;10.40;99.60
421;DHT22;63667;49.046;8.468;2022-10-31T03:14:48;10.40;99.60
421;DHT22;63667;49.046;8.468;2022-10-31T03:18:16;10.30;99.60
421;DHT22;63667;49.046;8.468;2022-10-31T03:20:39;10.20;99.60
421;DHT22;63667;49.046;8.468;2022-10-31T03:23:09;10.20;99.60
421;DHT22;63667;49.046;8.468;2022-10-31T03:25:37;10.20;99.60
421;DHT22;63667;49.046;8.468;2022-10-31T03:28:06;10.20;99.60
421;DHT22;63667;49.046;8.468;2022-10-31T03:30:35;10.10;99.60
421;DHT22;63667;49.046;8.468;2022-10-31T03:33:05;10.00;99.60
421;DHT22;63667;49.046;8.468;2022-10-31T03:35:33;9.90;99.60
421;DHT22;63667;49.046;8.468;2022-10-31T03:38:00;10.00;99.60
421;DHT22;63667;49.046;8.468;2022-10-31T03:40:27;10.00;99.60
421;DHT22;63667;49.046;8.468;2022-10-31T03:42:59;10.00;99.60
421;DHT22;63667;49.046;8.468;2022-10-31T03:45:30;10.10;99.60
421;DHT22;63667;49.046;8.468;2022-10-31T03:47:57;10.00;99.60
421;DHT22;63667;49.046;8.468;2022-10-31T03:50:29;10.00;99.60
421;DHT22;63667;49.046;8.468;2022-10-31T03:53:03;10.00;99.60
421;DHT22;63667;49.046;8.468;2022-10-31T03:58:29;9.90;99.60
421;DHT22;63667;49.046;8.468;2022-10-31T04:01:00;9.90;99.60
421;DHT22;63667;49.046;8.468;2022-10-31T04:03:31;9.90;99.60
421;DHT22;63667;49.046;8.468;2022-10-31T04:06:02;9.80;99.60
421;DHT22;63667;49.046;8.468;2022-10-31T04:08:31;9.80;99.60
421;DHT22;63667;49.046;8.468;2022-10-31T04:11:03;9.80;99.60
421;DHT22;63667;49.046;8.468;2022-10-31T04:13:31;9.70;99.60
421;DHT22;63667;49.046;8.468;2022-10-31T04:15:59;9.70;99.60
421;DHT22;63667;49.046;8.468;2022-10-31T04:18:25;9.70;99.60
421;DHT22;63667;49.046;8.468;2022-10-31T04:21:03;9.70;99.60
421;DHT22;63667;49.046;8.468;2022-10-31T04:23:30;9.70;99.60
421;DHT22;63667;49.046;8.468;2022-10-31T04:25:57;9.60;99.60
421;DHT22;63667;49.046;8.468;2022-10-31T04:28:23;9.60;99.60
421;DHT22;63667;49.046;8.468;2022-10-31T04:30:49;9.70;99.60
421;DHT22;63667;49.046;8.468;2022-10-31T04:33:16;9.60;99.60
421;DHT22;63667;49.046;8.468;2022-10-31T04:35:43;9.80;99.60
421;DHT22;63667;49.046;8.468;2022-10-31T04:38:10;9.80;99.60
421;DHT22;63667;49.046;8.468;2022-10-31T04:40:37;9.80;99.60
421;DHT22;63667;49.046;8.468;2022-10-31T04:43:03;9.70;99.60
421;DHT22;63667;49.046;8.468;2022-10-31T04:45:30;9.70;99.60
421;DHT22;63667;49.046;8.468;2022-10-31T04:47:56;9.70;99.60
421;DHT22;63667;49.046;8.468;2022-10-31T04:50:22;9.60;99.60
421;DHT22;63667;49.046;8.468;2022-10-31T04:52:48;9.60;99.60
421;DHT22;63667;49.046;8.468;2022-10-31T04:55:14;9.60;99.60
421;DHT22;63667;49.046;8.468;2022-10-31T04:57:45;9.50;99.60
421;DHT22;63667;49.046;8.468;2022-10-31T05:00:13;9.40;99.60
421;DHT22;63667;49.046;8.468;2022-10-31T05:02:53;9.40;99.60
421;DHT22;63667;49.046;8.468;2022-10-31T05:05:23;9.50;99.60
421;DHT22;63667;49.046;8.468;2022-10-31T05:07:50;9.40;99.60
421;DHT22;63667;49.046;8.468;2022-10-31T05:10:19;9.40;99.60
421;DHT22;63667;49.046;8.468;2022-10-31T05:12:51;9.40;99.60
421;DHT22;63667;49.046;8.468;2022-10-31T05:15:19;9.30;99.60
421;DHT22;63667;49.046;8.468;2022-10-31T05:17:45;9.30;99.60
421;DHT22;63667;49.046;8.468;2022-10-31T05:20:12;9.30;99.60
421;DHT22;63667;49.046;8.468;2022-10-31T05:22:57;9.30;99.60
421;DHT22;63667;49.046;8.468;2022-10-31T05:25:26;9.30;99.60
421;DHT22;63667;49.046;8.468;2022-10-31T05:27:54;9.30;99.60
421;DHT22;63667;49.046;8.468;2022-10-31T05:30:23;9.30;99.60
421;DHT22;63667;49.046;8.468;2022-10-31T05:32:50;9.30;99.60
421;DHT22;63667;49.046;8.468;2022-10-31T05:35:35;9.40;99.60
421;DHT22;63667;49.046;8.468;2022-10-31T05:38:01;9.60;99.60
421;DHT22;63667;49.046;8.468;2022-10-31T05:40:28;9.50;99.60
421;DHT22;63667;49.046;8.468;2022-10-31T05:42:55;9.60;99.60
421;DHT22;63667;49.046;8.468;2022-10-31T05:45:22;9.60;99.60
421;DHT22;63667;49.046;8.468;2022-10-31T05:47:57;9.40;99.60
421;DHT22;63667;49.046;8.468;2022-10-31T05:50:24;9.30;99.60
421;DHT22;63667;49.046;8.468;2022-10-31T05:56:42;9.40;99.60
421;DHT22;63667;49.046;8.468;2022-10-31T05:59:09;9.50;99.60
421;DHT22;63667;49.046;8.468;2022-10-31T06:01:35;9.40;99.60
421;DHT22;63667;49.046;8.468;2022-10-31T06:04:01;9.30;99.60
421;DHT22;63667;49.046;8.468;2022-10-31T06:06:27;9.40;99.60
421;DHT22;63667;49.046;8.468;2022-10-31T06:08:53;9.30;99.60
421;DHT22;63667;49.046;8.468;2022-10-31T06:11:19;9.30;99.60
421;DHT22;63667;49.046;8.468;2022-10-31T06:13:45;9.30;99.60
421;DHT22;63667;49.046;8.468;2022-10-31T06:16:11;9.30;99.60
421;DHT22;63667;49.046;8.468;2022-10-31T06:18:37;9.60;99.60
421;DHT22;63667;49.046;8.468;2022-10-31T06:21:04;9.80;99.60
421;DHT22;63667;49.046;8.468;2022-10-31T06:23:30;10.10;99.60
421;DHT22;63667;49.046;8.468;2022-10-31T06:25:56;10.10;99.60
421;DHT22;63667;49.046;8.468;2022-10-31T06:28:22;10.10;99.60
421;DHT22;63667;49.046;8.468;2022-10-31T06:30:48;10.10;99.60
421;DHT22;63667;49.046;8.468;2022-10-31T06:33:14;10.00;99.60
421;DHT22;63667;49.046;8.468;2022-10-31T06:35:48;10.10;99.60
421;DHT22;63667;49.046;8.468;2022-10-31T06:38:14;10.10;99.60
421;DHT22;63667;49.046;8.468;2022-10-31T06:40:41;10.10;99.60
421;DHT22;63667;49.046;8.468;2022-10-31T06:43:07;10.10;99.60
421;DHT22;63667;49.046;8.468;2022-10-31T06:45:33;10.10;99.60
421;DHT22;63667;49.046;8.468;2022-10-31T06:48:00;10.30;99.60
421;DHT22;63667;49.046;8.468;2022-10-31T06:50:26;10.20;99.60
421;DHT22;63667;49.046;8.468;2022-10-31T06:52:57;10.10;99.60
421;DHT22;63667;49.046;8.468;2022-10-31T06:55:25;10.00;99.60
421;DHT22;63667;49.046;8.468;2022-10-31T06:57:57;10.00;99.60
421;DHT22;63667;49.046;8.468;2022-10-31T07:00:24;10.20;99.60
421;DHT22;63667;49.046;8.468;2022-10-31T07:03:01;10.30;99.60
421;DHT22;63667;49.046;8.468;2022-10-31T07:05:29;10.30;99.60
421;DHT22;63667;49.046;8.468;2022-10-31T07:07:59;10.40;99.60
421;DHT22;63667;49.046;8.468;2022-10-31T07:10:28;10.40;99.60
421;DHT22;63667;49.046;8.468;2022-10-31T07:13:00;10.50;99.60
421;DHT22;63667;49.046;8.468;2022-10-31T07:15:29;10.60;99.60
421;DHT22;63667;49.046;8.468;2022-10-31T07:18:07;10.60;99.60
421;DHT22;63667;49.046;8.468;2022-10-31T07:20:34;10.80;99.60
421;DHT22;63667;49.046;8.468;2022-10-31T07:23:00;10.80;99.60
421;DHT22;63667;49.046;8.468;2022-10-31T07:25:27;10.90;99.60
421;DHT22;63667;49.046;8.468;2022-10-31T07:27:55;11.00;99.60
421;DHT22;63667;49.046;8.468;2022-10-31T07:30:21;11.30;99.60
421;DHT22;63667;49.046;8.468;2022-10-31T07:32:49;11.50;99.60
421;DHT22;63667;49.046;8.468;2022-10-31T07:35:24;11.70;99.60
421;DHT22;63667;49.046;8.468;2022-10-31T07:37:50;11.60;99.60
421;DHT22;63667;49.046;8.468;2022-10-31T07:40:18;11.50;99.60
421;DHT22;63667;49.046;8.468;2022-10-31T07:42:48;11.50;99.60
421;DHT22;63667;49.046;8.468;2022-10-31T07:45:17;11.60;99.60
421;DHT22;63667;49.046;8.468;2022-10-31T07:47:46;11.70;99.60
421;DHT22;63667;49.046;8.468;2022-10-31T07:50:18;12.00;99.60
421;DHT22;63667;49.046;8.468;2022-10-31T07:52:44;12.20;99.60
421;DHT22;63667;49.046;8.468;2022-10-31T07:55:11;12.10;99.60
421;DHT22;63667;49.046;8.468;2022-10-31T07:57:37;12.20;99.60
421;DHT22;63667;49.046;8.468;2022-10-31T08:00:09;12.30;99.60
421;DHT22;63667;49.046;8.468;2022-10-31T08:02:36;12.30;99.60
421;DHT22;63667;49.046;8.468;2022-10-31T08:05:02;12.40;99.60
421;DHT22;63667;49.046;8.468;2022-10-31T08:07:29;12.40;99.60
421;DHT22;63667;49.046;8.468;2022-10-31T08:09:56;12.70;99.60
421;DHT22;63667;49.046;8.468;2022-10-31T08:12:22;12.80;99.60
421;DHT22;63667;49.046;8.468;2022-10-31T08:14:48;12.90;99.60
421;DHT22;63667;49.046;8.468;2022-10-31T08:17:15;13.00;99.60
421;DHT22;63667;49.046;8.468;2022-10-31T08:19:41;13.00;99.60
421;DHT22;63667;49.046;8.468;2022-10-31T08:22:07;13.20;99.60
421;DHT22;63667;49.046;8.468;2022-10-31T08:24:33;13.10;99.60
